Time;durP1;ratioP1;P1;durP2;ratioP2;P2;SDS_P1;SDS_P2;PMS_P1;PMS_P2;Temp;Humidity;BMP_temperature;BMP_pressure;BME280_temperature;BME280_humidity;BME280_pressure;Samples;Min_cycle;Max_cycle;Signal;HPM_P1;HPM_P2
2022/05/19 00:00:23;;;;;;;5.90;2.10;;;;;;;8.30;100.00;100405.91;4802660;29;20221;-77
2022/05/19 00:02:50;;;;;;;3.27;2.10;;;;;;;8.22;100.00;100402.44;4786814;29;20623;-78
2022/05/19 00:05:19;;;;;;;3.10;2.20;;;;;;;8.21;100.00;100406.97;4803188;29;20290;-77
2022/05/19 00:07:46;;;;;;;2.73;1.90;;;;;;;8.12;100.00;100401.94;4802279;29;20252;-77
2022/05/19 00:10:13;;;;;;;4.93;2.30;;;;;;;8.07;100.00;100407.78;4786691;29;20195;-76
2022/05/19 00:12:40;;;;;;;3.30;2.17;;;;;;;8.03;100.00;100397.66;4802412;29;20218;-77
2022/05/19 00:15:07;;;;;;;3.50;2.20;;;;;;;7.95;100.00;100401.28;4802694;29;20266;-77
2022/05/19 00:17:34;;;;;;;2.30;1.97;;;;;;;7.90;100.00;100401.00;4802605;29;20198;-78
2022/05/19 00:20:01;;;;;;;3.70;2.20;;;;;;;7.91;100.00;100397.31;4802332;29;20279;-78
2022/05/19 00:22:28;;;;;;;2.37;1.80;;;;;;;7.94;100.00;100396.94;4802952;29;20222;-77
2022/05/19 00:24:54;;;;;;;3.17;2.10;;;;;;;7.91;100.00;100395.47;4802949;29;20234;-78
2022/05/19 00:27:21;;;;;;;2.53;2.33;;;;;;;7.84;100.00;100393.72;4803119;29;20618;-77
2022/05/19 00:29:48;;;;;;;2.33;2.03;;;;;;;7.77;100.00;100390.13;4802381;29;20191;-77
2022/05/19 00:32:16;;;;;;;3.13;2.30;;;;;;;7.73;100.00;100388.84;4803453;29;20605;-77
2022/05/19 00:34:43;;;;;;;3.57;2.27;;;;;;;7.66;100.00;100385.25;4802173;29;20198;-78
2022/05/19 00:37:10;;;;;;;3.87;2.10;;;;;;;7.71;100.00;100385.53;4803060;29;20190;-77
2022/05/19 00:39:37;;;;;;;4.07;2.33;;;;;;;7.61;100.00;100376.94;4802761;29;20219;-77
2022/05/19 00:44:50;;;;;;;4.43;2.43;;;;;;;7.49;100.00;100374.75;4802650;29;20186;-77
2022/05/19 00:47:23;;;;;;;3.67;2.30;;;;;;;7.45;100.00;100369.97;4802516;29;20647;-78
2022/05/19 00:49:50;;;;;;;3.10;2.20;;;;;;;7.42;100.00;100370.31;4786473;29;20243;-77
2022/05/19 00:52:24;;;;;;;3.07;2.30;;;;;;;7.33;100.00;100366.91;4804759;29;20202;-77
2022/05/19 00:54:58;;;;;;;3.43;2.60;;;;;;;7.34;100.00;100368.56;4806250;29;20197;-78
2022/05/19 00:57:27;;;;;;;5.63;2.63;;;;;;;7.29;100.00;100365.59;4789949;29;20195;-77
2022/05/19 00:59:56;;;;;;;3.23;2.00;;;;;;;7.25;100.00;100361.66;4805278;29;20250;-78
2022/05/19 01:02:26;;;;;;;2.87;2.53;;;;;;;7.23;100.00;100365.50;4805714;29;20190;-76
2022/05/19 01:05:05;;;;;;;2.43;2.20;;;;;;;7.18;100.00;100360.72;4789557;29;20258;-77
2022/05/19 01:07:57;;;;;;;4.23;2.17;;;;;;;7.22;100.00;100364.69;4805430;29;20198;-77
2022/05/19 01:10:28;;;;;;;2.73;2.20;;;;;;;7.15;100.00;100363.72;4805885;29;20182;-77
2022/05/19 01:12:55;;;;;;;4.93;2.50;;;;;;;7.13;100.00;100356.94;4789265;29;20341;-76
2022/05/19 01:15:22;;;;;;;3.00;2.40;;;;;;;7.06;100.00;100359.47;4804850;29;20194;-77
2022/05/19 01:17:49;;;;;;;4.13;2.47;;;;;;;6.99;100.00;100356.72;4788932;29;20190;-76
2022/05/19 01:20:20;;;;;;;3.77;2.57;;;;;;;6.97;100.00;100357.88;4804904;29;20218;-77
2022/05/19 01:22:50;;;;;;;4.77;2.87;;;;;;;6.91;100.00;100355.94;4804524;29;20230;-77
2022/05/19 01:25:25;;;;;;;5.37;2.70;;;;;;;6.90;100.00;100352.47;4804862;29;20183;-79
2022/05/19 01:27:52;;;;;;;2.60;2.40;;;;;;;6.83;100.00;100356.00;4804697;29;20411;-80
2022/05/19 01:30:19;;;;;;;4.27;2.87;;;;;;;6.79;100.00;100363.53;4788499;29;20284;-78
2022/05/19 01:32:46;;;;;;;3.10;2.60;;;;;;;6.70;100.00;100350.44;4788621;29;20599;-80
2022/05/19 01:35:13;;;;;;;3.10;2.50;;;;;;;6.67;100.00;100358.78;4804767;29;20261;-79
2022/05/19 01:37:40;;;;;;;3.17;2.80;;;;;;;6.62;100.00;100343.34;4804681;29;20248;-76
2022/05/19 01:40:18;;;;;;;3.20;2.70;;;;;;;6.64;100.00;100354.63;4788626;29;20211;-77
2022/05/19 01:43:24;;;;;;;2.60;2.40;;;;;;;6.53;100.00;100353.19;4804554;29;20294;-77
2022/05/19 01:45:59;;;;;;;3.30;2.97;;;;;;;6.50;100.00;100348.22;4801968;29;20248;-77
2022/05/19 01:48:35;;;;;;;5.53;2.87;;;;;;;6.41;100.00;100345.78;4804607;29;20182;-76
2022/05/19 01:51:06;;;;;;;5.03;2.80;;;;;;;6.36;100.00;100348.97;4804716;29;20259;-76
2022/05/19 01:53:49;;;;;;;4.23;2.73;;;;;;;6.31;100.00;100346.00;4788398;29;20713;-79
2022/05/19 01:56:18;;;;;;;3.07;2.70;;;;;;;6.33;100.00;100349.34;4804885;29;20239;-79
2022/05/19 01:59:13;;;;;;;4.03;2.80;;;;;;;6.30;100.00;100341.69;4804158;29;20190;-79
2022/05/19 02:01:44;;;;;;;3.93;2.80;;;;;;;6.27;100.00;100350.03;4804078;29;20737;-79
2022/05/19 02:04:25;;;;;;;5.20;2.60;;;;;;;6.26;100.00;100348.38;4787438;29;20266;-77
2022/05/19 02:06:56;;;;;;;2.90;2.67;;;;;;;6.22;100.00;100348.88;4788202;29;20194;-76
2022/05/19 02:09:25;;;;;;;4.03;2.70;;;;;;;6.20;100.00;100347.22;4804224;29;20285;-77
2022/05/19 02:11:57;;;;;;;4.27;2.50;;;;;;;6.19;100.00;100353.56;4803739;29;20194;-76
2022/05/19 02:14:31;;;;;;;4.03;2.73;;;;;;;6.11;100.00;100344.81;4788263;29;20708;-77
2022/05/19 02:16:59;;;;;;;3.07;2.60;;;;;;;6.08;100.00;100353.09;4787862;29;20235;-76
2022/05/19 02:19:29;;;;;;;3.53;2.70;;;;;;;6.05;100.00;100348.97;4787099;29;20192;-76
2022/05/19 02:21:55;;;;;;;4.33;2.70;;;;;;;6.03;100.00;100350.97;4803759;29;20198;-76
2022/05/19 02:24:24;;;;;;;3.20;2.30;;;;;;;5.98;100.00;100344.50;4787526;29;20241;-76
2022/05/19 02:26:51;;;;;;;2.50;2.30;;;;;;;6.03;100.00;100352.78;4802445;29;20221;-76
2022/05/19 02:29:26;;;;;;;4.57;2.67;;;;;;;5.96;100.00;100342.03;4803675;29;20558;-76
2022/05/19 02:31:53;;;;;;;2.73;2.43;;;;;;;5.93;100.00;100345.03;4803762;29;20190;-76
2022/05/19 02:34:20;;;;;;;3.97;2.53;;;;;;;5.92;100.00;100343.38;4803168;29;20538;-77
2022/05/19 02:36:47;;;;;;;2.83;2.57;;;;;;;5.88;100.00;100334.06;4803528;29;20187;-77
2022/05/19 02:39:14;;;;;;;3.33;2.50;;;;;;;5.87;100.00;100335.09;4803800;29;20217;-77
2022/05/19 02:41:41;;;;;;;2.73;2.53;;;;;;;5.86;100.00;100343.19;4803677;29;20268;-77
2022/05/19 02:44:07;;;;;;;3.60;2.40;;;;;;;5.86;100.00;100336.06;4787663;29;20198;-77
2022/05/19 02:46:34;;;;;;;3.37;2.70;;;;;;;5.80;100.00;100338.56;4803401;29;20199;-77
2022/05/19 02:49:02;;;;;;;3.50;2.93;;;;;;;5.75;100.00;100334.59;4803235;29;20273;-76
2022/05/19 02:51:30;;;;;;;4.33;2.60;;;;;;;5.68;100.00;100330.13;4803692;29;20190;-78
2022/05/19 02:53:57;;;;;;;6.30;2.70;;;;;;;5.70;100.00;100338.75;4802785;29;20218;-78
2022/05/19 02:56:24;;;;;;;3.93;2.60;;;;;;;5.66;100.00;100330.28;4787229;29;20243;-79
2022/05/19 02:58:51;;;;;;;4.13;2.40;;;;;;;5.63;100.00;100330.66;4802810;29;20341;-78
2022/05/19 03:01:18;;;;;;;4.00;2.70;;;;;;;5.58;100.00;100338.31;4802829;29;20705;-78
2022/05/19 03:03:45;;;;;;;4.67;2.50;;;;;;;5.51;100.00;100333.81;4802955;29;20190;-78
2022/05/19 03:06:12;;;;;;;3.97;2.57;;;;;;;5.49;100.00;100333.19;4803182;29;20194;-79
2022/05/19 03:08:39;;;;;;;5.83;2.93;;;;;;;5.47;100.00;100325.38;4802453;29;20195;-79
2022/05/19 03:11:05;;;;;;;3.93;2.60;;;;;;;5.43;100.00;100326.69;4803122;29;20202;-78
2022/05/19 03:13:32;;;;;;;3.20;2.67;;;;;;;5.51;100.00;100326.69;4803115;29;20286;-79
2022/05/19 03:15:59;;;;;;;4.13;2.30;;;;;;;5.45;100.00;100322.06;4802727;29;20183;-79
2022/05/19 03:18:26;;;;;;;4.80;2.83;;;;;;;5.48;100.00;100327.03;4803097;29;20217;-78
2022/05/19 03:20:53;;;;;;;3.77;2.60;;;;;;;5.46;100.00;100322.91;4802941;29;20283;-78
2022/05/19 03:23:20;;;;;;;3.20;2.60;;;;;;;5.40;100.00;100313.75;4802628;29;20238;-79
2022/05/19 03:25:46;;;;;;;5.33;2.53;;;;;;;5.47;100.00;100324.53;4802977;29;20537;-78
2022/05/19 03:28:14;;;;;;;4.47;2.57;;;;;;;5.48;100.00;100319.06;4803071;29;20878;-78
2022/05/19 03:30:42;;;;;;;4.27;2.87;;;;;;;5.52;100.00;100324.84;4802332;29;20198;-78
2022/05/19 03:33:09;;;;;;;4.53;2.67;;;;;;;5.51;100.00;100312.56;4803061;29;20198;-79
2022/05/19 03:35:36;;;;;;;3.70;2.63;;;;;;;5.54;100.00;100314.88;4802287;29;20703;-79
2022/05/19 03:38:03;;;;;;;4.50;2.57;;;;;;;5.58;100.00;100316.22;4802823;29;20190;-78
2022/05/19 03:40:30;;;;;;;3.97;2.63;;;;;;;5.57;100.00;100310.06;4802491;29;20268;-79
2022/05/19 03:42:57;;;;;;;4.47;2.60;;;;;;;5.67;100.00;100309.84;4802599;29;20633;-78
2022/05/19 03:45:24;;;;;;;4.60;2.50;;;;;;;5.72;100.00;100318.16;4802644;29;20251;-79
2022/05/19 03:47:51;;;;;;;5.63;2.90;;;;;;;5.73;100.00;100306.53;4802832;29;20268;-80
2022/05/19 03:50:17;;;;;;;4.10;2.63;;;;;;;5.80;100.00;100310.13;4801830;29;20293;-78
2022/05/19 03:52:44;;;;;;;3.87;2.80;;;;;;;5.92;100.00;100305.31;4802231;29;20232;-78
2022/05/19 03:55:13;;;;;;;6.10;3.17;;;;;;;6.74;100.00;100299.31;4801993;29;20198;-79
2022/05/19 03:57:41;;;;;;;3.40;2.70;;;;;;;8.70;100.00;100307.53;4785902;29;20190;-78
2022/05/19 04:00:10;;;;;;;4.13;2.50;;;;;;;10.23;100.00;100311.84;4801787;29;20685;-80
2022/05/19 04:02:40;;;;;;;3.87;2.37;;;;;;;11.95;100.00;100377.16;4801927;29;20186;-78
2022/05/19 04:05:09;;;;;;;5.57;2.53;;;;;;;13.17;99.64;100466.63;4801522;29;20243;-79
2022/05/19 04:07:37;;;;;;;5.07;2.20;;;;;;;14.01;87.34;100490.44;4802454;29;20255;-78
2022/05/19 04:10:05;;;;;;;2.93;1.93;;;;;;;14.50;80.49;100452.66;4786453;29;20198;-78
2022/05/19 04:12:32;;;;;;;4.53;2.07;;;;;;;15.03;76.53;100289.22;4802705;29;20889;-76
2022/05/19 04:14:59;;;;;;;3.73;2.20;;;;;;;14.70;77.55;100289.75;4802687;29;20198;-76
2022/05/19 04:17:26;;;;;;;2.33;2.13;;;;;;;14.33;78.67;100291.69;4803005;29;20248;-77
2022/05/19 04:19:53;;;;;;;5.30;2.53;;;;;;;13.21;85.58;100295.63;4802149;29;20747;-78
2022/05/19 04:22:20;;;;;;;3.20;2.17;;;;;;;12.31;95.96;100286.94;4803140;29;20195;-78
2022/05/19 04:24:46;;;;;;;4.03;2.27;;;;;;;11.75;100.00;100294.00;4802433;29;20768;-78
2022/05/19 04:27:14;;;;;;;3.53;2.40;;;;;;;11.25;100.00;100290.13;4804929;29;20194;-78
2022/05/19 04:29:41;;;;;;;6.57;2.73;;;;;;;10.93;100.00;100281.06;4806063;29;20198;-77
2022/05/19 04:32:08;;;;;;;4.03;2.50;;;;;;;10.67;100.00;100278.38;4806054;29;20194;-78
2022/05/19 04:34:35;;;;;;;3.83;2.23;;;;;;;10.56;100.00;100277.94;4805962;29;20672;-78
2022/05/19 04:37:03;;;;;;;3.77;2.40;;;;;;;10.51;100.00;100279.56;4804618;29;20255;-78
2022/05/19 04:39:30;;;;;;;3.83;2.23;;;;;;;10.48;100.00;100280.81;4805502;29;20199;-78
2022/05/19 04:41:57;;;;;;;3.27;2.43;;;;;;;10.52;100.00;100287.41;4806246;29;20646;-78
2022/05/19 04:44:24;;;;;;;3.90;2.30;;;;;;;10.62;100.00;100280.84;4806554;29;20244;-78
2022/05/19 04:46:51;;;;;;;3.90;3.07;;;;;;;10.72;100.00;100282.09;4790098;29;20613;-77
2022/05/19 04:49:18;;;;;;;2.70;2.33;;;;;;;10.85;100.00;100287.47;4806113;29;20195;-79
2022/05/19 04:51:45;;;;;;;3.13;2.47;;;;;;;10.99;100.00;100293.66;4790023;29;20206;-78
2022/05/19 04:54:11;;;;;;;5.00;2.67;;;;;;;11.12;100.00;100279.41;4806267;29;20194;-78
2022/05/19 04:56:42;;;;;;;3.80;2.67;;;;;;;11.29;100.00;100278.75;4806145;29;20255;-78
2022/05/19 04:59:15;;;;;;;3.33;2.27;;;;;;;11.37;100.00;100280.44;4806017;29;20199;-79
2022/05/19 05:01:43;;;;;;;3.70;2.70;;;;;;;11.49;100.00;100276.06;4805950;29;20214;-78
2022/05/19 05:04:11;;;;;;;4.23;2.70;;;;;;;11.64;100.00;100273.97;4806581;29;20551;-81
2022/05/19 05:06:38;;;;;;;3.93;2.57;;;;;;;11.85;100.00;100279.06;4789513;29;20190;-78
2022/05/19 05:09:05;;;;;;;5.33;2.70;;;;;;;12.03;100.00;100273.03;4805845;29;20664;-78
2022/05/19 05:11:32;;;;;;;5.50;2.50;;;;;;;12.25;100.00;100274.38;4806220;29;20263;-78
2022/05/19 05:13:59;;;;;;;5.63;2.77;;;;;;;12.38;100.00;100265.41;4804525;29;20207;-78
2022/05/19 05:16:26;;;;;;;4.57;2.70;;;;;;;12.52;100.00;100268.81;4789295;29;20626;-78
2022/05/19 05:18:53;;;;;;;4.87;2.80;;;;;;;12.68;100.00;100271.00;4805781;29;20199;-78
2022/05/19 05:21:20;;;;;;;6.67;2.67;;;;;;;12.83;100.00;100274.19;4805712;29;20226;-78
2022/05/19 05:23:46;;;;;;;6.03;2.53;;;;;;;12.92;100.00;100274.75;4807514;29;20234;-79
2022/05/19 05:26:13;;;;;;;6.43;2.70;;;;;;;12.98;100.00;100280.06;4807058;29;20194;-78
2022/05/19 05:28:40;;;;;;;4.10;2.90;;;;;;;12.95;100.00;100283.22;4808137;29;20243;-78
2022/05/19 05:31:07;;;;;;;5.47;2.70;;;;;;;13.04;100.00;100281.06;4808214;29;20194;-79
2022/05/19 05:33:34;;;;;;;5.03;2.97;;;;;;;13.20;100.00;100278.66;4808040;29;20186;-78
2022/05/19 05:36:00;;;;;;;6.67;3.00;;;;;;;13.41;100.00;100284.69;4807873;29;20247;-78
2022/05/19 05:38:27;;;;;;;4.30;2.70;;;;;;;13.61;100.00;100282.63;4790609;29;20198;-78
2022/05/19 05:40:55;;;;;;;5.63;2.57;;;;;;;13.84;100.00;100287.34;4807871;29;20214;-78
2022/05/19 05:43:22;;;;;;;4.00;2.77;;;;;;;13.97;100.00;100287.19;4807963;29;20270;-78
2022/05/19 05:45:49;;;;;;;4.07;2.90;;;;;;;14.19;100.00;100280.25;4791874;29;20663;-78
2022/05/19 05:48:17;;;;;;;3.83;3.10;;;;;;;14.39;100.00;100280.88;4807725;29;20203;-78
2022/05/19 05:50:44;;;;;;;4.63;3.10;;;;;;;14.64;100.00;100279.91;4791771;29;20191;-79
2022/05/19 05:53:11;;;;;;;5.50;2.80;;;;;;;14.84;100.00;100277.69;4807949;29;20191;-78
2022/05/19 05:55:39;;;;;;;5.63;3.03;;;;;;;15.12;100.00;100277.84;4807841;29;20720;-78
2022/05/19 05:58:10;;;;;;;5.63;3.00;;;;;;;15.26;100.00;100275.75;4807645;29;20252;-78
2022/05/19 06:00:38;;;;;;;7.43;3.43;;;;;;;15.41;100.00;100276.13;4806316;29;20219;-78
2022/05/19 06:03:05;;;;;;;6.10;3.20;;;;;;;15.60;100.00;100271.44;4807433;29;20203;-78
2022/05/19 06:05:33;;;;;;;5.67;3.00;;;;;;;15.73;100.00;100272.00;4807395;29;20195;-78
2022/05/19 06:07:59;;;;;;;5.97;2.80;;;;;;;16.02;100.00;100282.88;4807467;29;20200;-78
2022/05/19 06:10:28;;;;;;;2.60;2.40;;;;;;;16.26;99.92;100273.63;4807817;29;20549;-78
2022/05/19 06:12:56;;;;;;;5.53;2.47;;;;;;;16.53;93.89;100269.25;4791124;29;20193;-79
2022/05/19 06:15:23;;;;;;;3.20;2.10;;;;;;;16.92;77.65;100264.03;4807076;29;20196;-78
2022/05/19 06:17:50;;;;;;;3.40;1.77;;;;;;;17.46;68.64;100281.38;4807096;29;20198;-78
2022/05/19 06:20:18;;;;;;;4.10;2.10;;;;;;;17.94;62.56;100270.69;4806967;29;20195;-79
2022/05/19 06:22:46;;;;;;;5.60;1.87;;;;;;;18.42;58.37;100272.63;4806116;29;20283;-79
2022/05/19 06:25:16;;;;;;;4.80;1.90;;;;;;;18.74;56.49;100267.25;4802802;29;20247;-78
2022/05/19 06:27:43;;;;;;;4.70;1.90;;;;;;;18.97;56.47;100257.94;4787602;29;20195;-78
2022/05/19 06:30:12;;;;;;;4.80;2.00;;;;;;;19.37;53.90;100260.13;4803444;29;20760;-79
2022/05/19 06:32:40;;;;;;;5.93;1.90;;;;;;;19.54;53.07;100252.69;4820537;29;20588;-78
2022/05/19 06:35:08;;;;;;;3.90;1.80;;;;;;;19.78;50.68;100258.50;4821661;29;20201;-79
2022/05/19 06:37:35;;;;;;;2.90;1.73;;;;;;;19.99;48.67;100252.06;4805459;29;20194;-78
2022/05/19 06:40:02;;;;;;;4.03;1.53;;;;;;;20.13;47.72;100249.66;4821389;29;20282;-80
2022/05/19 06:42:29;;;;;;;4.00;1.80;;;;;;;20.22;47.63;100251.59;4820770;29;20210;-79
2022/05/19 06:45:00;;;;;;;4.83;1.80;;;;;;;20.37;47.50;100253.56;4821860;29;20182;-79
2022/05/19 06:47:28;;;;;;;3.43;1.90;;;;;;;20.46;47.42;100256.56;4821893;29;20202;-79
2022/05/19 06:49:55;;;;;;;6.23;2.10;;;;;;;20.56;45.78;100256.59;4820706;29;20209;-79
2022/05/19 06:52:28;;;;;;;5.87;1.83;;;;;;;20.54;48.21;100256.03;4822072;29;20736;-79
2022/05/19 06:54:58;;;;;;;5.20;1.70;;;;;;;20.65;45.78;100250.34;4805330;29;20178;-79
2022/05/19 06:57:26;;;;;;;8.00;1.90;;;;;;;20.85;45.19;100255.00;4821954;29;20691;-79
2022/05/19 06:59:53;;;;;;;5.80;1.83;;;;;;;20.93;46.56;100256.34;4821356;29;20199;-79
2022/05/19 07:02:23;;;;;;;6.07;2.03;;;;;;;20.95;44.34;100260.44;4804043;29;20218;-79
2022/05/19 07:04:50;;;;;;;6.90;2.00;;;;;;;21.12;44.29;100251.19;4804678;29;20259;-78
2022/05/19 07:07:17;;;;;;;3.40;1.97;;;;;;;21.21;44.38;100261.28;4805241;29;20254;-79
2022/05/19 07:09:44;;;;;;;4.10;2.00;;;;;;;21.36;43.47;100249.53;4820935;29;20198;-79
2022/05/19 07:12:11;;;;;;;3.70;1.60;;;;;;;21.42;42.55;100251.16;4821253;29;20191;-77
2022/05/19 07:14:39;;;;;;;6.17;2.20;;;;;;;21.46;42.19;100244.88;4820863;29;20195;-80
2022/05/19 07:17:08;;;;;;;3.13;1.80;;;;;;;21.50;43.04;100232.34;4790061;29;20667;-78
2022/05/19 07:22:24;;;;;;;5.70;1.77;;;;;;;21.77;42.32;100233.88;4821679;29;20204;-79
2022/05/19 07:24:51;;;;;;;4.00;1.90;;;;;;;21.77;42.36;100245.63;4820966;29;20301;-78
2022/05/19 07:27:18;;;;;;;6.07;1.87;;;;;;;21.77;41.47;100237.44;4821105;29;20727;-79
2022/05/19 07:29:46;;;;;;;5.20;1.90;;;;;;;21.80;41.11;100238.78;4804276;29;20248;-78
2022/05/19 07:32:20;;;;;;;2.47;1.63;;;;;;;21.86;41.14;100237.66;4821174;29;20595;-79
2022/05/19 07:34:47;;;;;;;2.57;1.83;;;;;;;21.99;41.28;100226.16;4805054;29;20190;-78
2022/05/19 07:37:15;;;;;;;5.40;1.70;;;;;;;21.89;41.36;100234.38;4805053;29;20196;-78
2022/05/19 07:39:41;;;;;;;4.50;1.90;;;;;;;22.00;41.48;100225.09;4804286;29;20791;-78
2022/05/19 07:42:09;;;;;;;4.87;1.90;;;;;;;22.15;40.64;100230.47;4804771;29;20217;-78
2022/05/19 07:44:36;;;;;;;3.43;1.80;;;;;;;22.29;41.82;100226.03;4820721;29;20212;-79
2022/05/19 07:47:03;;;;;;;1.97;1.60;;;;;;;22.41;40.59;100228.41;4821005;29;20195;-77
2022/05/19 07:49:30;;;;;;;5.60;2.00;;;;;;;22.54;40.09;100227.75;4820750;29;20204;-78
2022/05/19 07:51:57;;;;;;;4.70;1.80;;;;;;;22.51;40.63;100232.97;4820668;29;20224;-78
2022/05/19 07:54:26;;;;;;;1.83;1.67;;;;;;;22.63;40.51;100236.97;4820706;29;20187;-79
2022/05/19 07:56:54;;;;;;;3.00;1.70;;;;;;;22.74;40.67;100233.09;4804856;29;20195;-78
2022/05/19 07:59:21;;;;;;;4.40;1.70;;;;;;;22.71;40.42;100236.41;4820772;29;20254;-78
2022/05/19 08:01:49;;;;;;;4.53;1.70;;;;;;;22.83;39.04;100231.38;4805527;29;20211;-79
2022/05/19 08:04:22;;;;;;;6.47;1.93;;;;;;;22.93;40.90;100227.75;4824185;29;20201;-80
2022/05/19 08:06:49;;;;;;;3.87;1.80;;;;;;;22.96;39.21;100229.91;4808163;29;20183;-79
2022/05/19 08:12:03;;;;;;;7.67;2.07;;;;;;;23.18;39.04;100229.47;4823903;29;20187;-78
2022/05/19 08:17:30;;;;;;;2.27;1.70;;;;;;;23.33;40.42;100226.53;4811737;29;20558;-78
2022/05/19 08:19:58;;;;;;;3.80;2.00;;;;;;;23.40;38.62;100226.22;4792552;29;20268;-78
2022/05/19 08:22:26;;;;;;;4.18;1.70;;;;;;;23.35;38.90;100221.63;4823759;29;20745;-79
2022/05/19 08:24:52;;;;;;;3.05;2.00;;;;;;;23.40;40.05;100231.69;4806760;29;20272;-79
2022/05/19 08:27:19;;;;;;;3.20;1.90;;;;;;;23.58;38.34;100226.31;4805859;29;20194;-78
2022/05/19 08:29:46;;;;;;;2.87;1.47;;;;;;;23.60;38.59;100223.31;4805369;29;20190;-79
2022/05/19 08:32:14;;;;;;;5.33;2.00;;;;;;;23.69;38.57;100221.56;4805628;29;20194;-78
2022/05/19 08:34:40;;;;;;;4.20;1.83;;;;;;;23.69;37.82;100216.91;4789440;29;20192;-78
2022/05/19 08:37:07;;;;;;;4.75;1.88;;;;;;;23.82;38.37;100236.44;4805475;29;20255;-78
2022/05/19 08:39:34;;;;;;;3.53;1.90;;;;;;;23.89;38.55;100223.22;4805107;29;20186;-80
2022/05/19 08:42:04;;;;;;;2.60;2.00;;;;;;;23.97;37.09;100228.88;4805908;29;20211;-78
2022/05/19 08:44:38;;;;;;;4.25;1.80;;;;;;;24.05;37.10;100228.19;4805834;29;20202;-77
2022/05/19 08:47:07;;;;;;;8.05;1.90;;;;;;;24.12;37.16;100223.16;4789267;29;20630;-78
2022/05/19 08:50:22;;;;;;;2.72;1.80;;;;;;;24.01;36.90;100229.09;4788796;29;20200;-79
2022/05/19 08:52:50;;;;;;;5.22;1.83;;;;;;;24.07;37.43;100226.00;4731494;30;20264;-78
2022/05/19 08:55:18;;;;;;;4.85;1.75;;;;;;;24.03;38.54;100222.19;4717291;30;20262;-78
2022/05/19 08:57:54;;;;;;;4.53;1.92;;;;;;;24.00;37.31;100221.97;4772285;29;20274;-78
2022/05/19 09:00:32;;;;;;;4.55;1.88;;;;;;;24.03;37.80;100219.44;4789115;29;20179;-79
2022/05/19 09:03:05;;;;;;;6.85;2.13;;;;;;;24.08;38.01;100219.38;4789343;29;20202;-79
2022/05/19 09:05:58;;;;;;;6.50;1.75;;;;;;;24.17;37.91;100210.56;4805272;29;20253;-78
2022/05/19 09:08:59;;;;;;;5.38;2.03;;;;;;;24.29;38.09;100219.97;4805017;29;20272;-78
2022/05/19 09:11:48;;;;;;;8.32;1.98;;;;;;;24.22;36.77;100215.94;4804964;29;20246;-78
2022/05/19 09:14:20;;;;;;;5.47;2.00;;;;;;;24.24;36.84;100198.13;4805241;29;20228;-79
2022/05/19 09:16:48;;;;;;;3.05;1.73;;;;;;;24.33;39.42;100209.22;4788667;29;20718;-78
2022/05/19 09:19:45;;;;;;;7.28;2.10;;;;;;;24.39;38.00;100202.56;4804783;29;20225;-78
2022/05/19 09:22:25;;;;;;;3.10;1.58;;;;;;;24.57;35.64;100209.97;4804507;29;20198;-78
2022/05/19 09:24:53;;;;;;;3.33;1.70;;;;;;;24.60;36.50;100205.78;4804517;29;20264;-79
2022/05/19 09:27:22;;;;;;;4.20;2.13;;;;;;;24.54;36.94;100196.88;4804835;29;20305;-78
2022/05/19 09:29:52;;;;;;;4.60;1.92;;;;;;;24.39;36.10;100197.91;4804380;29;20195;-78
2022/05/19 09:32:29;;;;;;;4.60;2.00;;;;;;;24.58;35.77;100202.56;4813008;29;20201;-78
2022/05/19 09:35:08;;;;;;;6.55;2.63;;;;;;;24.64;35.03;100190.38;4806760;29;20177;-79
2022/05/19 09:37:49;;;;;;;2.85;1.83;;;;;;;24.74;35.16;100190.22;4822513;29;20187;-78
2022/05/19 09:40:22;;;;;;;6.60;2.00;;;;;;;24.80;34.57;100197.25;4816003;29;20202;-79
2022/05/19 09:43:21;;;;;;;4.50;1.80;;;;;;;24.92;35.30;100189.38;4804556;29;20326;-78
2022/05/19 09:46:00;;;;;;;3.40;1.90;;;;;;;24.91;36.05;100183.13;4788369;29;20180;-79
2022/05/19 09:48:33;;;;;;;2.58;1.90;;;;;;;25.10;36.36;100172.09;4804280;29;20265;-78
2022/05/19 09:51:03;;;;;;;2.58;1.83;;;;;;;25.04;35.10;100180.69;4788317;29;20184;-79
2022/05/19 09:53:40;;;;;;;2.42;1.80;;;;;;;24.96;35.04;100174.78;4804531;29;20298;-78
2022/05/19 09:56:13;;;;;;;3.80;2.00;;;;;;;25.11;34.46;100186.59;4804069;29;20187;-78
2022/05/19 09:58:46;;;;;;;4.45;1.85;;;;;;;25.07;34.64;100180.09;4803927;29;20194;-78
2022/05/19 10:01:20;;;;;;;3.67;2.15;;;;;;;25.20;34.28;100180.09;4803946;29;20253;-79
2022/05/19 10:03:58;;;;;;;5.43;2.00;;;;;;;25.22;34.99;100179.81;4804063;29;20197;-79
2022/05/19 10:06:52;;;;;;;4.45;1.92;;;;;;;25.31;34.46;100184.28;4803275;29;20187;-79
2022/05/19 10:09:31;;;;;;;3.88;1.77;;;;;;;25.33;34.07;100181.25;4787677;29;20257;-79
2022/05/19 10:12:06;;;;;;;3.78;1.90;;;;;;;25.33;33.50;100176.59;4803665;29;20194;-78
2022/05/19 10:14:33;;;;;;;5.07;2.08;;;;;;;25.30;35.63;100170.88;4787987;29;20252;-78
2022/05/19 10:17:00;;;;;;;6.82;2.00;;;;;;;25.46;34.34;100176.88;4803678;29;20198;-78
2022/05/19 10:19:36;;;;;;;3.17;2.10;;;;;;;25.48;33.95;100169.97;4803870;29;20200;-78
2022/05/19 10:22:42;;;;;;;6.18;2.13;;;;;;;25.52;34.06;100164.69;4786972;29;20266;-78
2022/05/19 10:25:34;;;;;;;3.80;1.90;;;;;;;25.51;34.12;100163.88;4785307;29;20182;-78
2022/05/19 10:31:30;;;;;;;3.40;2.17;;;;;;;25.74;34.12;100162.88;4803004;29;20174;-78
2022/05/19 10:34:09;;;;;;;4.15;2.20;;;;;;;25.83;32.60;100152.81;4785107;30;20606;-78
2022/05/19 10:37:07;;;;;;;3.63;1.60;;;;;;;26.01;33.52;100162.00;4784985;30;20262;-77
2022/05/19 10:39:43;;;;;;;3.30;2.13;;;;;;;26.13;32.26;100151.28;4770492;29;20260;-79
2022/05/19 10:42:17;;;;;;;5.50;1.95;;;;;;;26.10;31.86;100151.91;4803234;29;20241;-78
2022/05/19 10:45:25;;;;;;;4.25;1.95;;;;;;;26.19;32.15;100150.06;4787294;29;20186;-78
2022/05/19 10:48:10;;;;;;;3.50;1.60;;;;;;;26.32;32.58;100142.13;4697254;30;20696;-78
2022/05/19 10:50:38;;;;;;;4.57;2.00;;;;;;;26.50;32.42;100149.38;4711487;30;20722;-78
2022/05/19 10:53:33;;;;;;;3.47;1.83;;;;;;;26.63;31.39;100138.31;4769384;29;20275;-79
2022/05/19 10:56:09;;;;;;;7.82;1.75;;;;;;;26.67;30.72;100138.47;4786999;29;20178;-78
2022/05/19 10:59:20;;;;;;;3.90;1.88;;;;;;;26.66;30.62;100142.34;4802851;29;20196;-78
2022/05/19 11:01:59;;;;;;;2.72;1.85;;;;;;;26.68;30.45;100140.94;4802601;29;20199;-78
2022/05/19 11:05:09;;;;;;;3.85;1.98;;;;;;;26.78;30.51;100134.34;4799314;29;20195;-78
2022/05/19 11:07:42;;;;;;;3.67;2.17;;;;;;;26.86;29.96;100124.56;4734935;30;20283;-78
2022/05/19 11:10:20;;;;;;;4.60;1.80;;;;;;;26.97;30.07;100126.69;4787293;29;20255;-80
2022/05/19 11:13:11;;;;;;;5.93;2.17;;;;;;;27.01;29.88;100119.47;4781575;29;20190;-79
2022/05/19 11:15:45;;;;;;;3.42;1.90;;;;;;;26.99;31.36;100115.41;4788129;29;20232;-78
2022/05/19 11:18:23;;;;;;;3.05;1.80;;;;;;;27.00;30.88;100115.09;4769083;30;20256;-78
2022/05/19 11:21:09;;;;;;;3.60;2.00;;;;;;;27.06;30.16;100111.03;4768377;30;20183;-78
2022/05/19 11:23:51;;;;;;;2.17;1.80;;;;;;;27.31;29.91;100115.03;4791123;29;20286;-78
2022/05/19 11:26:31;;;;;;;5.13;1.80;;;;;;;27.32;29.83;100102.91;4786557;29;20183;-78
2022/05/19 11:29:09;;;;;;;3.92;1.80;;;;;;;27.32;28.67;100108.41;4786418;29;20236;-79
2022/05/19 11:31:45;;;;;;;4.40;1.60;;;;;;;27.31;28.13;100112.28;4803520;29;20201;-78
2022/05/19 11:34:31;;;;;;;3.47;1.73;;;;;;;27.38;27.99;100095.31;4820798;29;20273;-79
2022/05/19 11:37:23;;;;;;;2.15;1.70;;;;;;;27.45;29.16;100096.47;4820470;29;20197;-79
2022/05/19 11:39:57;;;;;;;4.28;1.75;;;;;;;27.57;28.26;100098.63;4804294;29;20229;-78
2022/05/19 11:42:39;;;;;;;3.20;1.70;;;;;;;27.71;27.19;100090.25;4820061;29;20776;-79
2022/05/19 11:45:11;;;;;;;2.55;1.80;;;;;;;27.69;27.29;100081.47;4820622;29;20218;-78
2022/05/19 11:56:44;;;;;;;2.65;1.50;;;;;;;27.97;28.01;100072.59;4819986;29;20242;-79
2022/05/19 11:59:12;;;;;;;4.15;1.85;;;;;;;28.06;25.80;100069.84;4821079;29;20786;-79
2022/05/19 12:01:45;;;;;;;2.65;1.80;;;;;;;28.21;26.71;100063.88;4819740;29;20243;-78
2022/05/19 12:04:17;;;;;;;4.05;1.80;;;;;;;28.14;26.81;100059.97;4813248;29;20218;-78
2022/05/19 12:07:22;;;;;;;2.35;1.80;;;;;;;28.13;27.04;100058.38;4820451;29;20597;-79